• Join FlightAware (Why Join?)
  • Login
  • US Flag 
04:36PM EDT


 

Airport Tracker/Info


-or-


 

Live Flight TrackerFlight Track Log ✈ SWA1462 ✈ 09-Apr-2013 ✈ KSLC - KPHX

Flight Track Log - Related Links

Times and Time Zones

All times are in EDT time to prevent confusion due to time zone crossing. See the SWA1462 flight status page for this flight to view local times or setup timezone preferences in your user account.

Time Position Orientation Groundspeed Altitude Reporting Facility
EDT Latitude Longitude Course Direction KTS MPH feet Rate Location/Type
01:52PM 40.8047 -112.0028 303° West 143 165 5,500  Level Salt Lake Center
01:53PM 40.8197 -112.0328 303° West 184 212 6,900 2,700 Climbing Salt Lake Center
01:53PM 40.8208 -112.0625 273° West 218 251 8,000 3,240 Climbing Salt Lake Center
01:54PM 40.8275 -112.1233 278° West 246 283 10,300 2,640 Climbing Salt Lake Center
01:54PM 40.8217 -112.1669 260° West 271 312 11,000 2,820 Climbing Salt Lake Center
01:55PM 40.8083 -112.2225 252° West 277 319 13,200 2,940 Climbing Salt Lake Center
01:56PM 40.7300 -112.2797 209° Southwest 336 387 16,100 3,000 Climbing Salt Lake Center
01:57PM 40.6306 -112.3011 189° South 361 415 19,400 3,300 Climbing Salt Lake Center
01:58PM 40.5003 -112.3236 187° South 395 455 22,900 2,160 Climbing Salt Lake Center
01:59PM 40.3867 -112.3494 190° South 414 476 23,900 1,800 Climbing Salt Lake Center
02:00PM 40.2778 -112.3992 199° South 418 481 26,700 2,400 Climbing Salt Lake Center
02:01PM 40.1717 -112.4750 209° Southwest 435 501 28,900 1,980 Climbing Salt Lake Center
02:02PM 40.0603 -112.5533 208° Southwest 456 525 30,800 1,980 Climbing Salt Lake Center
02:03PM 39.9453 -112.6339 208° Southwest 468 539 33,000 2,160 Climbing Salt Lake Center
02:04PM 39.8322 -112.7125 208° Southwest 462 532 35,300 1,440 Climbing Salt Lake Center
02:05PM 39.7011 -112.8036 208° Southwest 463 533 36,000 300 Climbing Salt Lake Center
02:06PM 39.5717 -112.8347 190° South 473 544 36,000  Level Salt Lake Center
02:07PM 39.4403 -112.8547 187° South 476 548 36,000  Level Salt Lake Center
02:08PM 39.3089 -112.8736 186° South 476 548 36,000  Level Salt Lake Center
02:09PM 39.1781 -112.8950 187° South 476 548 36,000  Level Salt Lake Center
02:10PM 39.0475 -112.9131 186° South 475 547 36,000  Level Salt Lake Center
02:11PM 38.8906 -112.9297 185° South 473 544 36,000  Level Salt Lake Center
02:12PM 38.7606 -112.9003 170° South 474 545 36,000  Level Salt Lake Center
02:13PM 38.6308 -112.8758 172° South 474 545 36,000  Level Salt Lake Center
02:15PM 38.5003 -112.8511 172° South 474 545 36,000  Level Salt Lake Center
02:16PM 38.3708 -112.8269 172° South 472 543 36,000  Level Salt Lake Center
02:17PM 38.2411 -112.8014 171° South 471 542 36,000  Level Salt Lake Center
02:18PM 38.1119 -112.7769 172° South 470 541 36,000  Level Salt Lake Center
02:19PM 37.9822 -112.7528 172° South 470 541 36,000  Level Salt Lake Center
02:20PM 37.8286 -112.7014 165° South 475 547 36,000  Level Salt Lake Center
02:21PM 37.6997 -112.6728 170° South 467 537 36,000  Level Salt Lake Center
02:22PM 37.5678 -112.6511 173° South 466 536 36,000  Level Salt Lake Center
02:23PM 37.4369 -112.6269 172° South 467 537 36,000  Level Salt Lake Center
02:24PM 37.3308 -112.6078 172° South 469 540 36,000 -420 Level Los Angeles Center
02:25PM 37.2008 -112.5861 172° South 467 537 35,300 -840 Descending Los Angeles Center
02:26PM 37.0714 -112.5636 172° South 468 539 34,300 -960 Descending Los Angeles Center
02:27PM 36.9425 -112.5428 173° South 466 536 33,400 -660 Descending Los Angeles Center
02:28PM 36.8128 -112.5206 172° South 468 539 33,000 -240 Descending Los Angeles Center
02:29PM 36.6594 -112.4936 172° South 465 535 33,000  Level Los Angeles Center
02:30PM 36.5314 -112.4728 173° South 464 534 33,000  Level Los Angeles Center
02:31PM 36.4036 -112.4517 172° South 465 535 33,000  Level Los Angeles Center
02:32PM 36.2742 -112.4317 173° South 466 536 33,000  Level Los Angeles Center
02:33PM 36.1450 -112.4097 172° South 468 539 33,000  Level Los Angeles Center
02:34PM 36.0142 -112.4008 177° South 471 542 33,000  Level Los Angeles Center
02:35PM 35.8811 -112.4094 183° South 475 547 33,000 -540 Level Los Angeles Center
02:36PM 35.7233 -112.4181 183° South 474 545 32,000 -1,500 Descending Los Angeles Center
02:37PM 35.5956 -112.4233 182° South 467 537 30,000 -1,500 Descending Los Angeles Center
02:38PM 35.4747 -112.4339 184° South 452 520 29,000 -540 Descending Los Angeles Center
02:39PM 35.3544 -112.4294 178° South 434 499 29,000  Level Los Angeles Center
02:40PM 35.2561 -112.4075 170° South 439 505 29,000  Level Albuquerque Center
02:41PM 35.1350 -112.3817 170° South 440 506 29,000 -120 Level Albuquerque Center
02:42PM 35.0128 -112.3561 170° South 443 510 28,800 -1,440 Descending Albuquerque Center
02:43PM 34.8692 -112.3239 170° South 438 504 26,100 -1,380 Descending Albuquerque Center
02:44PM 34.7533 -112.2992 170° South 427 491 26,000 -1,140 Descending Albuquerque Center
02:45PM 34.6419 -112.2742 170° South 425 489 23,800 -2,220 Descending Albuquerque Center
02:46PM 34.5303 -112.2492 170° South 415 478 21,500 -1,860 Descending Albuquerque Center
02:47PM 34.4236 -112.2250 169° South 399 459 20,000 -840 Descending Albuquerque Center
02:48PM 34.2986 -112.1914 167° South 388 447 19,900 -1,260 Descending Albuquerque Center
02:49PM 34.1969 -112.1647 168° South 380 437 17,500 -2,040 Descending Albuquerque Center
02:50PM 34.0975 -112.1394 168° South 371 427 15,800 -1,620 Descending Albuquerque Center
02:51PM 34.0042 -112.1158 168° South 349 402 14,300 -1,560 Descending Albuquerque Center
02:52PM 33.9139 -112.0919 168° South 338 389 12,700 -1,560 Descending Albuquerque Center
02:53PM 33.8272 -112.0694 168° South 324 373 11,100 -1,440 Descending Albuquerque Center
02:54PM 33.7261 -112.0467 169° South 310 357 9,800 -840 Descending Albuquerque Center
02:55PM 33.6553 -112.0347 172° South 264 304 9,400 -420 Descending Albuquerque Center
02:56PM 33.5881 -112.0225 171° South 247 284 9,000 -780 Descending Albuquerque Center
02:57PM 33.5333 -111.9786 146° Southeast 249 287 7,900 -1,020 Descending Albuquerque Center
02:58PM 33.5278 -111.8964 95° East 253 291 7,000 -480 Descending Albuquerque Center
02:59PM 33.5275 -111.8275 90° East 206 237 7,000 -540 Level Albuquerque Center
03:00PM 33.5058 -111.7614 111° Southeast 206 237 6,000 -840 Descending Albuquerque Center
03:01PM 33.4675 -111.7858 208° Southwest 179 206 5,300 -1,020 Descending Albuquerque Center
03:03PM 33.4439 -111.8339 240° Southwest 168 193 4,000 -1,200 Descending Albuquerque Center
03:04PM 33.4406 -111.8814 265° West 145 167 2,900 -960 Descending Albuquerque Center
03:05PM 33.4403 -111.9300 270° West 145 167 2,100 -780 Descending Albuquerque Center
03:06PM 33.4406 -111.9722 270° West 130 150 1,400 -720 Descending Albuquerque Center